Time;durP1;ratioP1;P1;durP2;ratioP2;P2;SDS_P1;SDS_P2;PMS_P1;PMS_P2;Temp;Humidity;BMP_temperature;BMP_pressure;BME280_temperature;BME280_humidity;BME280_pressure;Samples;Min_cycle;Max_cycle;Signal;HPM_P1;HPM_P2
2023/07/28 00:02:16;;;;;;;;;;;22.00;89.20;;;;;;5115994;28;20382;-63
2023/07/28 00:04:41;;;;;;;;;;;22.10;89.20;;;;;;5116204;28;20296;-68
2023/07/28 00:07:07;;;;;;;;;;;22.10;89.20;;;;;;5096841;28;19957;-60
2023/07/28 00:09:32;;;;;;;;;;;22.00;89.20;;;;;;5095206;28;19909;-65
2023/07/28 00:11:58;;;;;;;;;;;22.00;89.20;;;;;;5098393;28;20322;-65
2023/07/28 00:14:25;;;;;;;;;;;22.00;89.10;;;;;;5115686;28;20006;-76
2023/07/28 00:16:54;;;;;;;;;;;22.10;89.20;;;;;;5115604;28;20286;-66
2023/07/28 00:19:20;;;;;;;;;;;22.10;89.20;;;;;;5097604;28;19911;-65
2023/07/28 00:21:49;;;;;;;;;;;22.10;89.20;;;;;;5116195;28;19914;-68
2023/07/28 00:24:15;;;;;;;;;;;22.10;89.20;;;;;;5107635;28;20362;-62
2023/07/28 00:26:40;;;;;;;;;;;22.10;89.00;;;;;;5095113;28;19908;-63
2023/07/28 00:29:07;;;;;;;;;;;22.10;89.10;;;;;;5095871;28;20314;-60
2023/07/28 00:31:32;;;;;;;;;;;22.10;89.00;;;;;;5115110;28;19912;-58
2023/07/28 00:33:58;;;;;;;;;;;22.10;89.00;;;;;;5115395;28;19935;-61
2023/07/28 00:36:23;;;;;;;;;;;22.10;88.90;;;;;;5115604;28;20381;-58
2023/07/28 00:38:49;;;;;;;;;;;22.20;88.90;;;;;;5115548;28;19965;-64
2023/07/28 00:41:14;;;;;;;;;;;22.20;88.90;;;;;;5110928;28;20366;-60
2023/07/28 00:43:40;;;;;;;;;;;22.20;88.80;;;;;;5115392;28;19907;-67
2023/07/28 00:46:06;;;;;;;;;;;22.20;88.80;;;;;;5115414;28;19923;-60
2023/07/28 00:48:31;;;;;;;;;;;22.20;88.80;;;;;;5115328;28;20358;-59
2023/07/28 00:50:57;;;;;;;;;;;22.10;88.80;;;;;;5115294;28;19912;-71
2023/07/28 00:53:23;;;;;;;;;;;22.10;88.80;;;;;;5112890;28;20015;-64
2023/07/28 00:55:49;;;;;;;;;;;22.10;88.90;;;;;;5114993;28;19999;-70
2023/07/28 00:58:14;;;;;;;;;;;22.10;88.90;;;;;;5115507;28;19953;-65
2023/07/28 01:00:40;;;;;;;;;;;22.10;88.80;;;;;;5115202;28;19912;-67
2023/07/28 01:03:05;;;;;;;;;;;22.10;88.80;;;;;;5115101;28;20421;-68
2023/07/28 01:05:53;;;;;;;;;;;22.20;88.90;;;;;;5099241;28;19912;-63
2023/07/28 01:08:30;;;;;;;;;;;22.10;88.90;;;;;;5094750;28;20287;-66
2023/07/28 01:10:55;;;;;;;;;;;22.20;88.90;;;;;;5105198;28;19928;-65
2023/07/28 01:13:21;;;;;;;;;;;22.20;88.90;;;;;;5097027;28;19935;-65
2023/07/28 01:15:47;;;;;;;;;;;22.10;88.80;;;;;;5114612;28;19907;-65
2023/07/28 01:18:12;;;;;;;;;;;22.10;88.80;;;;;;5114601;28;19987;-62
2023/07/28 01:20:38;;;;;;;;;;;22.10;88.80;;;;;;5114491;28;19912;-64
2023/07/28 01:23:06;;;;;;;;;;;22.20;88.90;;;;;;5100835;28;20418;-65
2023/07/28 01:25:36;;;;;;;;;;;22.20;88.90;;;;;;5094405;28;19908;-64
2023/07/28 01:28:01;;;;;;;;;;;22.20;88.90;;;;;;5094032;28;20374;-64
2023/07/28 01:30:27;;;;;;;;;;;22.10;88.90;;;;;;5102124;28;20011;-64
2023/07/28 01:32:56;;;;;;;;;;;22.10;88.90;;;;;;5114619;28;19912;-65
2023/07/28 01:35:22;;;;;;;;;;;22.10;88.90;;;;;;5111188;28;19912;-69
2023/07/28 01:37:50;;;;;;;;;;;22.10;88.90;;;;;;5114680;28;19915;-64
2023/07/28 01:40:19;;;;;;;;;;;22.20;89.00;;;;;;5114585;28;19976;-68
2023/07/28 01:42:44;;;;;;;;;;;22.10;88.90;;;;;;5099856;28;19912;-76
2023/07/28 01:45:10;;;;;;;;;;;22.10;88.90;;;;;;5093834;28;19989;-73
2023/07/28 01:47:35;;;;;;;;;;;22.10;88.90;;;;;;5103344;28;19911;-72
2023/07/28 01:50:01;;;;;;;;;;;22.10;88.90;;;;;;5114389;28;20421;-67
2023/07/28 01:52:26;;;;;;;;;;;22.10;88.90;;;;;;5112088;28;19916;-67
2023/07/28 01:54:52;;;;;;;;;;;22.20;88.90;;;;;;5114521;28;20056;-66
2023/07/28 01:57:17;;;;;;;;;;;22.20;88.90;;;;;;5114337;28;19931;-69
2023/07/28 01:59:43;;;;;;;;;;;22.20;88.90;;;;;;5114053;28;19912;-67
2023/07/28 02:02:09;;;;;;;;;;;22.20;88.90;;;;;;5107280;28;19911;-71
2023/07/28 02:04:34;;;;;;;;;;;22.20;88.90;;;;;;5109894;28;19918;-62
2023/07/28 02:07:00;;;;;;;;;;;22.20;88.90;;;;;;5114054;28;19947;-63
2023/07/28 02:09:26;;;;;;;;;;;22.20;88.90;;;;;;5114518;28;19920;-66
2023/07/28 02:11:52;;;;;;;;;;;22.10;88.80;;;;;;5114251;28;20310;-75
2023/07/28 02:14:17;;;;;;;;;;;22.20;88.90;;;;;;5114007;28;19958;-69
2023/07/28 02:16:43;;;;;;;;;;;22.20;88.90;;;;;;5114502;28;20269;-66
2023/07/28 02:19:09;;;;;;;;;;;22.20;88.90;;;;;;5111761;28;19912;-70
2023/07/28 02:21:34;;;;;;;;;;;22.20;88.90;;;;;;5113921;28;19915;-62
2023/07/28 02:24:00;;;;;;;;;;;22.20;88.90;;;;;;5114469;28;19915;-69
2023/07/28 02:26:25;;;;;;;;;;;22.20;88.90;;;;;;5114132;28;20381;-68
2023/07/28 02:28:51;;;;;;;;;;;22.20;88.90;;;;;;5113820;28;19908;-74
2023/07/28 02:31:16;;;;;;;;;;;22.20;88.90;;;;;;5111858;28;20358;-66
2023/07/28 02:33:41;;;;;;;;;;;22.20;88.90;;;;;;5077631;28;19952;-70
2023/07/28 02:36:07;;;;;;;;;;;22.20;88.90;;;;;;5093756;28;19908;-61
2023/07/28 02:38:32;;;;;;;;;;;22.20;88.90;;;;;;5094036;28;19933;-62
2023/07/28 02:40:58;;;;;;;;;;;22.20;88.90;;;;;;5093657;28;19908;-69
2023/07/28 02:43:23;;;;;;;;;;;22.20;88.90;;;;;;5092326;28;20333;-62
2023/07/28 02:45:55;;;;;;;;;;;22.20;88.80;;;;;;5107628;28;19924;-68
2023/07/28 02:48:21;;;;;;;;;;;22.20;88.90;;;;;;5113970;28;19961;-66
2023/07/28 02:50:47;;;;;;;;;;;22.20;88.90;;;;;;5112878;28;19915;-67
2023/07/28 02:53:13;;;;;;;;;;;22.20;88.80;;;;;;5114898;28;19919;-62
2023/07/28 02:55:45;;;;;;;;;;;22.20;88.80;;;;;;5117564;28;19907;-64
2023/07/28 02:58:10;;;;;;;;;;;22.20;88.80;;;;;;5114639;28;19912;-63
2023/07/28 03:00:39;;;;;;;;;;;22.20;88.80;;;;;;5108251;28;19919;-63
2023/07/28 03:03:05;;;;;;;;;;;22.20;88.90;;;;;;5097371;28;19908;-63
2023/07/28 03:05:31;;;;;;;;;;;22.20;88.80;;;;;;5097362;28;19908;-65
2023/07/28 03:07:56;;;;;;;;;;;22.20;88.80;;;;;;5103846;28;20378;-62
2023/07/28 03:10:22;;;;;;;;;;;22.20;88.80;;;;;;5102734;28;19923;-63
2023/07/28 03:12:47;;;;;;;;;;;22.20;88.80;;;;;;5095261;28;19923;-67
2023/07/28 03:15:13;;;;;;;;;;;22.20;88.80;;;;;;5095775;28;19912;-64
2023/07/28 03:17:38;;;;;;;;;;;22.20;88.80;;;;;;5099777;28;19912;-62
2023/07/28 03:20:04;;;;;;;;;;;22.20;88.90;;;;;;5094556;28;19935;-64
2023/07/28 03:22:30;;;;;;;;;;;22.20;88.90;;;;;;5096566;28;19919;-66
2023/07/28 03:24:56;;;;;;;;;;;22.20;88.90;;;;;;5096666;28;19912;-66
2023/07/28 03:27:21;;;;;;;;;;;22.20;88.90;;;;;;5096377;28;19911;-67
2023/07/28 03:29:47;;;;;;;;;;;22.10;88.90;;;;;;5096427;28;20070;-67
2023/07/28 03:32:12;;;;;;;;;;;22.20;89.00;;;;;;5096230;28;20290;-67
2023/07/28 03:34:38;;;;;;;;;;;22.20;89.00;;;;;;5096458;28;19915;-66
2023/07/28 03:37:03;;;;;;;;;;;22.10;88.90;;;;;;5096154;28;20007;-66
2023/07/28 03:39:30;;;;;;;;;;;22.20;89.00;;;;;;5096332;28;19912;-66
2023/07/28 03:41:56;;;;;;;;;;;22.20;89.00;;;;;;5096413;28;19912;-66
2023/07/28 03:44:21;;;;;;;;;;;22.20;88.90;;;;;;5096025;28;19927;-66
2023/07/28 03:46:47;;;;;;;;;;;22.10;88.90;;;;;;5096237;28;19908;-67
2023/07/28 03:49:12;;;;;;;;;;;22.10;88.90;;;;;;5096097;28;20420;-67
2023/07/28 03:51:38;;;;;;;;;;;22.10;88.90;;;;;;5095994;28;19912;-67
2023/07/28 03:54:03;;;;;;;;;;;22.10;88.80;;;;;;5095682;28;19944;-66
2023/07/28 03:56:29;;;;;;;;;;;22.20;88.90;;;;;;5095704;28;20366;-67
2023/07/28 03:58:54;;;;;;;;;;;22.10;88.80;;;;;;5095917;28;19930;-66
2023/07/28 04:01:21;;;;;;;;;;;22.10;88.80;;;;;;5095638;28;20322;-67
2023/07/28 04:03:47;;;;;;;;;;;22.10;88.80;;;;;;5095693;28;20260;-67
2023/07/28 04:06:12;;;;;;;;;;;22.10;88.80;;;;;;5077051;28;19915;-67
2023/07/28 04:08:38;;;;;;;;;;;22.10;88.80;;;;;;5095802;28;19908;-67
2023/07/28 04:11:04;;;;;;;;;;;22.10;88.80;;;;;;5095725;28;20354;-66
2023/07/28 04:13:29;;;;;;;;;;;22.10;88.80;;;;;;5095397;28;20294;-66
2023/07/28 04:15:55;;;;;;;;;;;22.10;88.80;;;;;;5095340;28;20286;-65
2023/07/28 04:18:20;;;;;;;;;;;22.10;88.80;;;;;;5095479;28;19908;-67
2023/07/28 04:20:46;;;;;;;;;;;22.10;88.80;;;;;;5095497;28;19954;-67
2023/07/28 04:23:12;;;;;;;;;;;22.10;88.70;;;;;;5095045;28;20441;-67
2023/07/28 04:25:37;;;;;;;;;;;22.10;88.80;;;;;;5095376;28;19969;-67
2023/07/28 04:28:03;;;;;;;;;;;22.10;88.70;;;;;;5095059;28;19908;-67
2023/07/28 04:30:28;;;;;;;;;;;22.10;88.70;;;;;;5095244;28;19912;-67
2023/07/28 04:32:54;;;;;;;;;;;22.10;88.70;;;;;;5095200;28;19912;-65
2023/07/28 04:35:19;;;;;;;;;;;22.10;88.70;;;;;;5094841;28;19937;-67
2023/07/28 04:37:45;;;;;;;;;;;22.10;88.70;;;;;;5095139;28;19962;-67
2023/07/28 04:40:10;;;;;;;;;;;22.10;88.70;;;;;;5094995;28;19908;-67
2023/07/28 04:42:36;;;;;;;;;;;22.10;88.70;;;;;;5076810;28;19915;-67
2023/07/28 04:45:02;;;;;;;;;;;22.10;88.70;;;;;;5094826;28;19927;-67
2023/07/28 04:47:27;;;;;;;;;;;22.10;88.70;;;;;;5095026;28;19915;-66
2023/07/28 04:49:53;;;;;;;;;;;22.10;88.70;;;;;;5076518;28;20010;-67
2023/07/28 04:52:18;;;;;;;;;;;22.10;88.70;;;;;;5094844;28;20373;-67
2023/07/28 04:54:44;;;;;;;;;;;22.10;88.70;;;;;;5094441;28;19914;-67
2023/07/28 04:57:09;;;;;;;;;;;22.10;88.60;;;;;;5094715;28;19912;-66
2023/07/28 04:59:34;;;;;;;;;;;22.10;88.70;;;;;;5094911;28;19908;-67
2023/07/28 05:02:00;;;;;;;;;;;22.10;88.60;;;;;;5094598;28;19908;-66
2023/07/28 05:04:25;;;;;;;;;;;22.10;88.60;;;;;;5094344;28;20011;-67
2023/07/28 05:06:51;;;;;;;;;;;22.10;88.60;;;;;;5076166;28;19914;-66
2023/07/28 05:09:16;;;;;;;;;;;22.10;88.60;;;;;;5094281;28;20248;-66
2023/07/28 05:11:42;;;;;;;;;;;22.10;88.60;;;;;;5094321;28;20412;-67
2023/07/28 05:14:08;;;;;;;;;;;22.10;88.60;;;;;;5094206;28;19919;-66
2023/07/28 05:16:34;;;;;;;;;;;22.00;88.50;;;;;;5093912;28;19931;-67
2023/07/28 05:19:00;;;;;;;;;;;22.10;88.60;;;;;;5093760;28;20283;-67
2023/07/28 05:21:25;;;;;;;;;;;22.10;88.60;;;;;;5094557;28;19908;-66
2023/07/28 05:23:51;;;;;;;;;;;22.00;88.50;;;;;;5093755;28;20005;-66
2023/07/28 05:26:16;;;;;;;;;;;22.10;88.60;;;;;;5094039;28;19951;-65
2023/07/28 05:28:42;;;;;;;;;;;22.10;88.60;;;;;;5093661;28;19914;-65
2023/07/28 05:31:07;;;;;;;;;;;22.00;88.50;;;;;;5094134;28;19912;-65
2023/07/28 05:33:33;;;;;;;;;;;22.00;88.50;;;;;;5094074;28;19966;-65
2023/07/28 05:35:59;;;;;;;;;;;22.00;88.50;;;;;;5093808;28;20358;-65
2023/07/28 05:38:25;;;;;;;;;;;22.10;88.60;;;;;;5093962;28;20386;-67
2023/07/28 05:40:56;;;;;;;;;;;22.00;88.50;;;;;;5093922;28;19908;-67
2023/07/28 05:43:22;;;;;;;;;;;22.00;88.60;;;;;;5094348;28;19931;-67
2023/07/28 05:45:47;;;;;;;;;;;22.00;88.60;;;;;;5094135;28;20361;-67
2023/07/28 05:48:13;;;;;;;;;;;22.00;88.60;;;;;;5093720;28;19912;-65
2023/07/28 05:50:39;;;;;;;;;;;22.10;88.60;;;;;;5093525;28;20420;-67
2023/07/28 05:53:04;;;;;;;;;;;22.10;88.60;;;;;;5093931;28;19912;-66
2023/07/28 05:55:29;;;;;;;;;;;22.10;88.60;;;;;;5093758;28;19923;-66
2023/07/28 05:57:55;;;;;;;;;;;22.00;88.60;;;;;;5093389;28;19920;-67
2023/07/28 06:00:21;;;;;;;;;;;22.10;88.60;;;;;;5093218;28;20044;-67
2023/07/28 06:02:47;;;;;;;;;;;22.00;88.60;;;;;;5093209;28;20377;-67
2023/07/28 06:05:12;;;;;;;;;;;22.00;88.60;;;;;;5094219;28;19908;-67
2023/07/28 06:07:38;;;;;;;;;;;22.00;88.60;;;;;;5093786;28;19915;-67
2023/07/28 06:10:04;;;;;;;;;;;22.10;89.10;;;;;;5093480;28;19913;-67
2023/07/28 06:12:29;;;;;;;;;;;22.00;88.60;;;;;;5093408;28;19946;-66
2023/07/28 06:14:55;;;;;;;;;;;22.00;88.60;;;;;;5093198;28;19908;-67
2023/07/28 06:17:20;;;;;;;;;;;22.00;88.60;;;;;;5093076;28;19908;-67
2023/07/28 06:19:46;;;;;;;;;;;22.00;88.60;;;;;;5093604;28;19908;-67
2023/07/28 06:22:11;;;;;;;;;;;22.00;88.60;;;;;;5093625;28;19912;-68
2023/07/28 06:24:37;;;;;;;;;;;22.00;88.60;;;;;;5093300;28;19916;-67
2023/07/28 06:27:07;;;;;;;;;;;22.00;88.60;;;;;;5093728;28;20354;-68
2023/07/28 06:29:33;;;;;;;;;;;22.00;88.60;;;;;;5096401;28;19908;-67
2023/07/28 06:31:58;;;;;;;;;;;22.00;88.60;;;;;;5097551;28;19919;-67
2023/07/28 06:34:24;;;;;;;;;;;22.00;88.70;;;;;;5079248;28;19955;-67
2023/07/28 06:36:49;;;;;;;;;;;22.00;88.70;;;;;;5096986;28;20007;-67
2023/07/28 06:39:15;;;;;;;;;;;22.00;88.70;;;;;;5097052;28;19915;-67
2023/07/28 06:41:40;;;;;;;;;;;22.00;88.70;;;;;;5078636;28;19912;-67
2023/07/28 06:44:08;;;;;;;;;;;22.00;88.70;;;;;;5096721;28;19915;-67
2023/07/28 06:46:33;;;;;;;;;;;22.00;88.70;;;;;;5096638;28;19973;-68
2023/07/28 06:48:59;;;;;;;;;;;22.00;88.70;;;;;;5097184;28;19912;-66
2023/07/28 06:51:25;;;;;;;;;;;22.00;88.70;;;;;;5096743;28;20351;-67
2023/07/28 06:53:51;;;;;;;;;;;22.00;88.70;;;;;;5096560;28;19914;-67
2023/07/28 06:56:16;;;;;;;;;;;22.00;88.70;;;;;;5096402;28;20021;-67
2023/07/28 06:58:42;;;;;;;;;;;21.90;88.70;;;;;;5096931;28;19915;-67
2023/07/28 07:01:10;;;;;;;;;;;21.90;88.70;;;;;;5096739;28;19915;-67
2023/07/28 07:03:39;;;;;;;;;;;22.00;88.80;;;;;;5096765;28;19915;-67
2023/07/28 07:06:04;;;;;;;;;;;22.00;88.80;;;;;;5096646;28;20362;-67
2023/07/28 07:08:30;;;;;;;;;;;22.00;88.80;;;;;;5097001;28;19918;-66
2023/07/28 07:10:55;;;;;;;;;;;22.00;88.80;;;;;;5096304;28;19916;-67
2023/07/28 07:13:21;;;;;;;;;;;21.90;88.70;;;;;;5096895;28;19991;-67
2023/07/28 07:15:47;;;;;;;;;;;21.90;88.70;;;;;;5096362;28;19912;-67
2023/07/28 07:18:12;;;;;;;;;;;21.90;88.70;;;;;;5096310;28;19962;-67
2023/07/28 07:20:38;;;;;;;;;;;21.90;88.80;;;;;;5096293;28;19912;-66
2023/07/28 07:23:04;;;;;;;;;;;22.00;88.80;;;;;;5096726;28;19915;-66
2023/07/28 07:25:29;;;;;;;;;;;21.90;88.80;;;;;;5096291;28;20000;-65
2023/07/28 07:27:55;;;;;;;;;;;22.00;88.80;;;;;;5096300;28;19908;-66
2023/07/28 07:30:21;;;;;;;;;;;22.00;88.80;;;;;;5077923;28;19912;-67
2023/07/28 07:32:46;;;;;;;;;;;22.00;88.80;;;;;;5077810;28;19965;-66
2023/07/28 07:35:12;;;;;;;;;;;22.00;88.90;;;;;;5095788;28;19961;-67
2023/07/28 07:37:37;;;;;;;;;;;21.90;88.80;;;;;;5096001;28;20271;-66
2023/07/28 07:40:03;;;;;;;;;;;22.00;88.90;;;;;;5095440;28;20451;-66
2023/07/28 07:42:40;;;;;;;;;;;22.00;88.90;;;;;;5096173;28;19908;-67
2023/07/28 07:45:06;;;;;;;;;;;22.00;88.90;;;;;;5096020;28;19977;-66
2023/07/28 07:47:31;;;;;;;;;;;22.00;88.90;;;;;;5095956;28;20317;-67
2023/07/28 07:49:56;;;;;;;;;;;22.00;88.90;;;;;;5095645;28;20359;-67
2023/07/28 07:52:22;;;;;;;;;;;21.90;88.80;;;;;;5095707;28;19912;-67
2023/07/28 07:54:47;;;;;;;;;;;22.00;88.90;;;;;;5095650;28;19908;-66
2023/07/28 07:57:13;;;;;;;;;;;21.90;88.90;;;;;;5095519;28;20261;-66
2023/07/28 07:59:39;;;;;;;;;;;22.00;88.90;;;;;;5095295;28;19962;-66
2023/07/28 08:02:05;;;;;;;;;;;22.00;88.90;;;;;;5095690;28;19914;-67
2023/07/28 08:04:31;;;;;;;;;;;22.00;88.90;;;;;;5095192;28;19919;-66
2023/07/28 08:06:57;;;;;;;;;;;22.00;88.90;;;;;;5073004;28;20408;-66
2023/07/28 08:09:22;;;;;;;;;;;21.90;88.90;;;;;;5093111;28;19998;-67
2023/07/28 08:11:48;;;;;;;;;;;22.00;89.00;;;;;;5095019;28;20386;-67
2023/07/28 08:14:13;;;;;;;;;;;21.90;89.00;;;;;;5102224;28;19966;-68
2023/07/28 08:16:39;;;;;;;;;;;21.90;89.00;;;;;;5088066;28;19920;-70
2023/07/28 08:19:04;;;;;;;;;;;22.00;89.10;;;;;;5106815;28;19919;-68
2023/07/28 08:21:31;;;;;;;;;;;22.00;89.10;;;;;;5096412;28;19912;-63
2023/07/28 08:23:56;;;;;;;;;;;22.00;89.10;;;;;;5094336;28;19957;-69
2023/07/28 08:26:22;;;;;;;;;;;22.00;89.10;;;;;;5094471;28;19976;-70
2023/07/28 08:28:47;;;;;;;;;;;22.00;89.10;;;;;;5094772;28;19961;-71
2023/07/28 08:31:12;;;;;;;;;;;21.90;89.00;;;;;;5094851;28;19912;-63
2023/07/28 08:33:38;;;;;;;;;;;21.90;89.00;;;;;;5094713;28;19918;-63
2023/07/28 08:36:04;;;;;;;;;;;21.90;87.10;;;;;;5092991;28;20355;-63
2023/07/28 08:38:29;;;;;;;;;;;22.00;86.20;;;;;;5094766;28;19919;-64
2023/07/28 08:40:58;;;;;;;;;;;21.90;85.90;;;;;;5101456;28;20294;-63
2023/07/28 08:43:24;;;;;;;;;;;22.00;85.90;;;;;;5091180;28;19919;-66
2023/07/28 08:45:49;;;;;;;;;;;22.00;86.10;;;;;;5099884;28;20081;-64
2023/07/28 08:48:15;;;;;;;;;;;21.90;86.50;;;;;;5109034;28;20369;-62
2023/07/28 08:50:41;;;;;;;;;;;21.90;87.10;;;;;;5093375;28;19919;-63
2023/07/28 08:53:06;;;;;;;;;;;21.90;87.40;;;;;;5094354;28;20010;-65
2023/07/28 08:55:32;;;;;;;;;;;21.90;87.60;;;;;;5092838;28;19923;-64
2023/07/28 08:58:13;;;;;;;;;;;21.90;87.80;;;;;;5109895;28;20372;-65
2023/07/28 09:00:40;;;;;;;;;;;21.90;87.90;;;;;;5087099;28;19934;-64
2023/07/28 09:03:08;;;;;;;;;;;21.90;88.00;;;;;;5094373;28;19995;-63
2023/07/28 09:05:33;;;;;;;;;;;21.90;88.10;;;;;;5094013;28;19924;-64
2023/07/28 09:07:59;;;;;;;;;;;21.90;88.10;;;;;;5076312;28;19915;-64
2023/07/28 09:10:24;;;;;;;;;;;22.00;88.20;;;;;;5093789;28;19912;-64
2023/07/28 09:12:50;;;;;;;;;;;21.90;88.10;;;;;;5093761;28;20371;-63
2023/07/28 09:15:18;;;;;;;;;;;21.90;88.20;;;;;;5093979;28;20273;-64
2023/07/28 09:17:44;;;;;;;;;;;21.90;88.20;;;;;;5094159;28;19923;-64
2023/07/28 09:20:18;;;;;;;;;;;22.00;88.20;;;;;;5094147;28;19912;-64
2023/07/28 09:22:44;;;;;;;;;;;21.90;88.10;;;;;;5094203;28;19908;-63
2023/07/28 09:25:13;;;;;;;;;;;21.90;88.10;;;;;;5094065;28;19935;-65
2023/07/28 09:27:39;;;;;;;;;;;21.90;88.10;;;;;;5094125;28;20240;-65
2023/07/28 09:30:05;;;;;;;;;;;21.90;88.10;;;;;;5094041;28;19912;-64
2023/07/28 09:32:33;;;;;;;;;;;21.90;88.10;;;;;;5093749;28;20011;-65
2023/07/28 09:35:09;;;;;;;;;;;21.90;88.10;;;;;;5093780;28;19931;-65
2023/07/28 09:37:40;;;;;;;;;;;21.90;88.10;;;;;;5094389;28;19908;-64
2023/07/28 09:40:09;;;;;;;;;;;21.90;88.10;;;;;;5075844;28;19992;-64
2023/07/28 09:42:35;;;;;;;;;;;21.90;88.00;;;;;;5093705;28;19912;-64
2023/07/28 09:45:01;;;;;;;;;;;21.90;88.00;;;;;;5093817;28;19966;-65
2023/07/28 09:47:28;;;;;;;;;;;21.90;88.00;;;;;;5093601;28;20260;-64
2023/07/28 09:49:55;;;;;;;;;;;21.90;88.00;;;;;;5093874;28;19994;-65
2023/07/28 09:52:23;;;;;;;;;;;21.90;88.00;;;;;;5093630;28;19912;-64
2023/07/28 09:54:50;;;;;;;;;;;21.90;88.00;;;;;;5093694;28;19908;-63
2023/07/28 09:57:19;;;;;;;;;;;21.90;88.00;;;;;;5093481;28;20033;-64
2023/07/28 09:59:45;;;;;;;;;;;21.90;88.00;;;;;;5093747;28;19916;-64
2023/07/28 10:02:11;;;;;;;;;;;21.90;88.00;;;;;;5094796;28;20329;-63
2023/07/28 10:04:37;;;;;;;;;;;21.90;87.90;;;;;;5079578;28;19955;-66
2023/07/28 10:07:04;;;;;;;;;;;21.90;87.90;;;;;;5097845;28;19908;-64
2023/07/28 10:09:30;;;;;;;;;;;21.90;87.90;;;;;;5098238;28;19912;-65
2023/07/28 10:11:55;;;;;;;;;;;21.90;87.90;;;;;;5097475;28;19916;-65
2023/07/28 10:14:29;;;;;;;;;;;21.90;87.90;;;;;;5097255;28;19998;-66
2023/07/28 10:16:55;;;;;;;;;;;21.90;87.90;;;;;;5097660;28;20018;-65
2023/07/28 10:19:21;;;;;;;;;;;21.90;87.90;;;;;;5097366;28;19966;-65
2023/07/28 10:21:46;;;;;;;;;;;21.90;87.90;;;;;;5095250;28;19912;-65
2023/07/28 10:24:14;;;;;;;;;;;21.90;87.90;;;;;;5094675;28;20011;-65
2023/07/28 10:26:44;;;;;;;;;;;21.90;87.80;;;;;;5097342;28;19912;-64
2023/07/28 10:29:09;;;;;;;;;;;21.90;87.50;;;;;;5097288;28;19908;-64
2023/07/28 10:31:36;;;;;;;;;;;21.90;87.60;;;;;;5097717;28;19977;-64
2023/07/28 10:34:01;;;;;;;;;;;21.90;87.80;;;;;;5097296;28;19935;-65
2023/07/28 10:36:27;;;;;;;;;;;21.90;88.40;;;;;;5097190;28;20351;-64
2023/07/28 10:39:04;;;;;;;;;;;21.90;87.90;;;;;;5097056;28;19908;-61
2023/07/28 10:41:32;;;;;;;;;;;21.90;88.10;;;;;;5098401;28;19916;-60
2023/07/28 10:43:58;;;;;;;;;;;21.90;88.30;;;;;;5107199;28;19952;-57
2023/07/28 10:46:23;;;;;;;;;;;21.90;88.30;;;;;;5095232;28;19970;-64
2023/07/28 10:48:49;;;;;;;;;;;21.90;88.20;;;;;;5097042;28;20004;-65
2023/07/28 10:51:26;;;;;;;;;;;21.90;88.30;;;;;;5096982;28;19912;-65
2023/07/28 10:53:54;;;;;;;;;;;22.00;88.60;;;;;;5096718;28;19919;-65
2023/07/28 10:56:21;;;;;;;;;;;21.90;88.70;;;;;;5096911;28;20298;-65
2023/07/28 10:58:46;;;;;;;;;;;21.90;88.70;;;;;;5096680;28;19967;-65
2023/07/28 11:01:14;;;;;;;;;;;21.90;88.80;;;;;;5096402;28;19908;-65
2023/07/28 11:03:40;;;;;;;;;;;21.90;88.80;;;;;;5096682;28;19919;-65
2023/07/28 11:06:06;;;;;;;;;;;21.90;88.80;;;;;;5096541;28;19908;-65
2023/07/28 11:08:32;;;;;;;;;;;21.90;88.80;;;;;;5096910;28;19995;-65
2023/07/28 11:10:57;;;;;;;;;;;21.90;88.90;;;;;;5096180;28;20385;-65
2023/07/28 11:13:25;;;;;;;;;;;21.90;88.90;;;;;;5096135;28;19994;-65
2023/07/28 11:15:50;;;;;;;;;;;21.90;88.90;;;;;;5096171;28;19965;-65
2023/07/28 11:18:16;;;;;;;;;;;21.90;88.90;;;;;;5096047;28;19908;-65
2023/07/28 11:20:42;;;;;;;;;;;21.90;88.90;;;;;;5096036;28;19908;-65
2023/07/28 11:23:08;;;;;;;;;;;21.90;88.80;;;;;;5096201;28;19908;-64
2023/07/28 11:25:35;;;;;;;;;;;21.90;88.90;;;;;;5096276;28;19908;-65
2023/07/28 11:28:06;;;;;;;;;;;21.90;88.90;;;;;;5095537;28;20367;-65
2023/07/28 11:30:33;;;;;;;;;;;21.90;88.90;;;;;;5077849;28;20354;-66
2023/07/28 11:32:59;;;;;;;;;;;21.90;88.80;;;;;;5096104;28;19912;-65
2023/07/28 11:35:24;;;;;;;;;;;21.90;88.90;;;;;;5096036;28;20278;-64
2023/07/28 11:37:51;;;;;;;;;;;21.90;88.80;;;;;;5095647;28;19912;-64
2023/07/28 11:40:19;;;;;;;;;;;21.90;88.90;;;;;;5095927;28;19913;-64
2023/07/28 11:42:45;;;;;;;;;;;21.90;88.80;;;;;;5096022;28;19908;-64
2023/07/28 11:45:13;;;;;;;;;;;21.90;88.80;;;;;;5095820;28;20023;-64
2023/07/28 11:47:38;;;;;;;;;;;21.90;88.80;;;;;;5095520;28;20259;-64
2023/07/28 11:50:04;;;;;;;;;;;21.90;88.80;;;;;;5077662;28;20014;-66
2023/07/28 11:52:31;;;;;;;;;;;21.90;88.80;;;;;;5095428;28;19916;-65
2023/07/28 11:54:57;;;;;;;;;;;21.90;88.80;;;;;;5095397;28;19933;-65
2023/07/28 11:57:23;;;;;;;;;;;21.90;88.80;;;;;;5076812;28;19908;-65
2023/07/28 11:59:49;;;;;;;;;;;22.00;88.90;;;;;;5095611;28;20321;-65
2023/07/28 12:02:23;;;;;;;;;;;21.90;88.80;;;;;;5095725;28;19908;-65
2023/07/28 12:04:50;;;;;;;;;;;21.90;88.80;;;;;;5095570;28;19908;-65
2023/07/28 12:07:17;;;;;;;;;;;21.90;88.80;;;;;;5095560;28;19915;-65
2023/07/28 12:09:45;;;;;;;;;;;21.90;88.70;;;;;;5095435;28;19908;-65
2023/07/28 12:12:10;;;;;;;;;;;21.90;88.70;;;;;;5095034;28;19920;-65
2023/07/28 12:14:36;;;;;;;;;;;21.90;88.70;;;;;;5094795;28;20423;-65
2023/07/28 12:17:02;;;;;;;;;;;21.90;88.70;;;;;;5100672;28;19907;-65
2023/07/28 12:19:28;;;;;;;;;;;21.90;88.70;;;;;;5103582;28;19908;-68
2023/07/28 12:21:53;;;;;;;;;;;21.90;88.70;;;;;;5093815;28;19905;-67
2023/07/28 12:24:19;;;;;;;;;;;22.00;88.80;;;;;;5112740;28;19904;-63
2023/07/28 12:26:48;;;;;;;;;;;21.90;88.70;;;;;;5093803;28;19904;-69
2023/07/28 12:29:14;;;;;;;;;;;21.90;89.30;;;;;;5094956;28;19911;-68
2023/07/28 12:31:39;;;;;;;;;;;21.90;88.70;;;;;;5084566;28;20097;-69
2023/07/28 12:34:05;;;;;;;;;;;22.00;88.90;;;;;;5115233;28;19908;-69
2023/07/28 12:36:30;;;;;;;;;;;21.90;88.90;;;;;;5114625;28;19904;-68
2023/07/28 12:38:56;;;;;;;;;;;21.90;89.00;;;;;;5094982;28;20257;-69
2023/07/28 12:41:21;;;;;;;;;;;21.90;89.00;;;;;;5094753;28;19911;-69
2023/07/28 12:43:46;;;;;;;;;;;22.00;89.10;;;;;;5094901;28;19904;-69
2023/07/28 12:46:19;;;;;;;;;;;21.90;89.10;;;;;;5091242;28;19909;-69
2023/07/28 12:48:45;;;;;;;;;;;22.00;89.10;;;;;;5091291;28;19967;-69
2023/07/28 12:51:10;;;;;;;;;;;21.90;89.10;;;;;;5090979;28;19905;-68
2023/07/28 12:53:35;;;;;;;;;;;21.90;89.10;;;;;;5090919;28;19905;-69
2023/07/28 12:56:01;;;;;;;;;;;21.90;89.10;;;;;;5090840;28;20094;-69
2023/07/28 12:58:27;;;;;;;;;;;21.90;89.10;;;;;;5091139;28;19911;-69
2023/07/28 13:00:53;;;;;;;;;;;21.90;89.20;;;;;;5091008;28;20318;-69
2023/07/28 13:03:18;;;;;;;;;;;21.90;89.20;;;;;;5091417;28;19966;-69
2023/07/28 13:05:44;;;;;;;;;;;22.00;89.30;;;;;;5122679;28;20351;-68
2023/07/28 13:08:09;;;;;;;;;;;22.00;89.20;;;;;;5090701;28;20301;-68
2023/07/28 13:10:36;;;;;;;;;;;22.00;89.30;;;;;;5123382;28;19912;-68
2023/07/28 13:13:02;;;;;;;;;;;21.90;89.30;;;;;;5090852;28;19987;-68
2023/07/28 13:15:27;;;;;;;;;;;21.90;89.30;;;;;;5100440;28;20003;-68
2023/07/28 13:17:53;;;;;;;;;;;21.90;89.30;;;;;;5093444;28;19904;-67
2023/07/28 13:20:18;;;;;;;;;;;21.90;89.30;;;;;;5094331;28;19998;-68
2023/07/28 13:22:44;;;;;;;;;;;21.90;89.30;;;;;;5098607;28;20398;-68
2023/07/28 13:25:09;;;;;;;;;;;21.90;89.40;;;;;;5090652;28;20247;-68
2023/07/28 13:27:35;;;;;;;;;;;21.90;89.40;;;;;;5090502;28;19904;-68
2023/07/28 13:30:02;;;;;;;;;;;21.90;89.40;;;;;;5090541;28;19904;-68
2023/07/28 13:32:28;;;;;;;;;;;22.00;89.40;;;;;;5093972;28;20010;-68
2023/07/28 13:34:53;;;;;;;;;;;21.90;89.40;;;;;;5093946;28;19995;-68
2023/07/28 13:37:19;;;;;;;;;;;21.90;89.40;;;;;;5089818;28;19957;-68
2023/07/28 13:39:45;;;;;;;;;;;22.00;89.40;;;;;;5132672;27;19923;-67
2023/07/28 13:42:11;;;;;;;;;;;22.00;89.40;;;;;;5088444;28;19913;-68
2023/07/28 13:44:37;;;;;;;;;;;22.00;89.30;;;;;;5077937;28;19927;-63
2023/07/28 13:47:04;;;;;;;;;;;21.90;89.30;;;;;;5088692;28;19908;-68
2023/07/28 13:49:29;;;;;;;;;;;22.00;89.40;;;;;;5089676;28;19908;-68
2023/07/28 13:51:55;;;;;;;;;;;21.90;89.30;;;;;;5090068;28;19915;-68
2023/07/28 13:54:20;;;;;;;;;;;22.00;89.40;;;;;;5122900;28;20074;-68
2023/07/28 13:56:46;;;;;;;;;;;22.00;89.40;;;;;;5082585;28;19909;-67
2023/07/28 13:59:11;;;;;;;;;;;22.00;89.40;;;;;;5076005;28;20031;-67
2023/07/28 14:01:36;;;;;;;;;;;21.90;89.30;;;;;;5076269;28;19962;-67
2023/07/28 14:04:02;;;;;;;;;;;22.00;89.30;;;;;;5090368;28;19912;-67
2023/07/28 14:06:27;;;;;;;;;;;22.00;89.40;;;;;;5096576;28;19973;-68
2023/07/28 14:08:53;;;;;;;;;;;22.00;89.40;;;;;;5095940;28;20317;-68
2023/07/28 14:11:18;;;;;;;;;;;22.00;89.50;;;;;;5096312;28;19955;-68